Time;durP1;ratioP1;P1;durP2;ratioP2;P2;SDS_P1;SDS_P2;PMS_P1;PMS_P2;Temp;Humidity;BMP_temperature;BMP_pressure;BME280_temperature;BME280_humidity;BME280_pressure;Samples;Min_cycle;Max_cycle;Signal;HPM_P1;HPM_P2
2022/05/06 00:01:39;;;;;;;;;;;14.30;99.90;;;;;;5091810;28;19912;-87
2022/05/06 00:04:05;;;;;;;;;;;14.20;99.90;;;;;;5091875;28;19955;-88
2022/05/06 00:06:32;;;;;;;;;;;14.10;99.90;;;;;;5073376;28;19908;-87
2022/05/06 00:08:58;;;;;;;;;;;14.00;99.90;;;;;;5091967;28;19943;-87
2022/05/06 00:11:23;;;;;;;;;;;14.10;99.90;;;;;;5091802;28;19958;-87
2022/05/06 00:13:52;;;;;;;;;;;14.00;99.90;;;;;;5073261;28;20372;-86
2022/05/06 00:16:18;;;;;;;;;;;14.00;99.90;;;;;;5091629;28;19943;-88
2022/05/06 00:18:44;;;;;;;;;;;13.90;99.90;;;;;;5091652;28;19908;-87
2022/05/06 00:21:09;;;;;;;;;;;13.90;99.90;;;;;;5091171;28;19908;-87
2022/05/06 00:23:35;;;;;;;;;;;13.90;99.90;;;;;;5091603;28;19950;-87
2022/05/06 00:26:03;;;;;;;;;;;14.00;99.90;;;;;;5091334;28;19977;-88
2022/05/06 00:28:29;;;;;;;;;;;13.90;99.90;;;;;;5091276;28;19908;-87
2022/05/06 00:30:54;;;;;;;;;;;13.90;99.90;;;;;;5091705;28;19975;-87
2022/05/06 00:33:24;;;;;;;;;;;13.90;99.90;;;;;;5073112;28;20376;-88
2022/05/06 00:35:54;;;;;;;;;;;13.90;99.90;;;;;;5072692;28;19912;-89
2022/05/06 00:38:19;;;;;;;;;;;13.90;99.90;;;;;;5091263;28;19920;-88
2022/05/06 00:40:45;;;;;;;;;;;13.90;99.90;;;;;;5072268;28;19908;-87
2022/05/06 00:43:11;;;;;;;;;;;13.80;99.90;;;;;;5090971;28;19908;-88
2022/05/06 00:45:43;;;;;;;;;;;13.80;99.90;;;;;;5091742;28;19911;-88
2022/05/06 00:48:09;;;;;;;;;;;13.80;99.90;;;;;;5091801;28;20073;-89
2022/05/06 00:50:34;;;;;;;;;;;13.80;99.90;;;;;;5072537;28;19915;-87
2022/05/06 00:53:01;;;;;;;;;;;13.80;99.90;;;;;;5091277;28;19909;-87
2022/05/06 00:55:26;;;;;;;;;;;13.80;99.90;;;;;;5091337;28;19922;-87
2022/05/06 00:57:52;;;;;;;;;;;13.80;99.90;;;;;;5090888;28;20354;-88
2022/05/06 01:00:18;;;;;;;;;;;13.70;99.90;;;;;;5072697;28;19912;-87
2022/05/06 01:02:44;;;;;;;;;;;13.70;99.90;;;;;;5090759;28;19920;-89
2022/05/06 01:05:09;;;;;;;;;;;13.70;99.90;;;;;;5090566;28;19908;-87
2022/05/06 01:07:36;;;;;;;;;;;13.70;99.90;;;;;;5091033;28;20011;-87
2022/05/06 01:10:02;;;;;;;;;;;13.60;99.90;;;;;;5090877;28;19908;-87
2022/05/06 01:12:27;;;;;;;;;;;13.60;99.90;;;;;;5090833;28;19947;-88
2022/05/06 01:14:53;;;;;;;;;;;13.60;99.90;;;;;;5072652;28;19967;-88
2022/05/06 01:17:18;;;;;;;;;;;13.60;99.90;;;;;;5090881;28;19999;-87
2022/05/06 01:19:44;;;;;;;;;;;13.60;99.90;;;;;;5090130;28;19909;-87
2022/05/06 01:22:09;;;;;;;;;;;13.60;99.90;;;;;;5090561;28;19908;-87
2022/05/06 01:24:35;;;;;;;;;;;13.60;99.90;;;;;;5090705;28;19953;-88
2022/05/06 01:27:06;;;;;;;;;;;13.60;99.90;;;;;;5090792;28;20325;-88
2022/05/06 01:29:32;;;;;;;;;;;13.50;99.90;;;;;;5072557;28;19908;-87
2022/05/06 01:31:58;;;;;;;;;;;13.50;99.90;;;;;;5091003;28;20534;-88
2022/05/06 01:34:25;;;;;;;;;;;13.50;99.90;;;;;;5072347;28;19923;-88
2022/05/06 01:36:51;;;;;;;;;;;13.50;99.90;;;;;;5072691;28;19908;-87
2022/05/06 01:39:18;;;;;;;;;;;13.40;99.90;;;;;;5090339;28;19921;-88
2022/05/06 01:41:45;;;;;;;;;;;13.40;99.90;;;;;;5090524;28;19909;-88
2022/05/06 01:44:14;;;;;;;;;;;13.40;99.90;;;;;;5090455;28;20375;-91
2022/05/06 01:46:39;;;;;;;;;;;13.40;99.90;;;;;;5072424;28;19930;-87
2022/05/06 01:49:05;;;;;;;;;;;13.40;99.90;;;;;;5090475;28;20396;-87
2022/05/06 01:51:32;;;;;;;;;;;13.40;99.90;;;;;;5072101;28;20508;-87
2022/05/06 01:53:58;;;;;;;;;;;13.40;99.90;;;;;;5069421;28;20391;-88
2022/05/06 01:56:23;;;;;;;;;;;13.30;99.90;;;;;;5076221;28;19908;-88
2022/05/06 01:58:49;;;;;;;;;;;13.30;99.90;;;;;;5094342;28;19908;-88
2022/05/06 02:01:14;;;;;;;;;;;13.20;99.90;;;;;;5094262;28;19927;-88
2022/05/06 02:06:24;;;;;;;;;;;13.20;99.90;;;;;;5094332;28;19968;-87
2022/05/06 02:08:50;;;;;;;;;;;13.20;99.90;;;;;;5094399;28;19908;-88
2022/05/06 02:11:15;;;;;;;;;;;13.20;99.90;;;;;;5076043;28;19915;-88
2022/05/06 02:13:44;;;;;;;;;;;13.20;99.90;;;;;;5076315;28;19912;-88
2022/05/06 02:16:09;;;;;;;;;;;13.20;99.90;;;;;;5094279;28;20341;-90
2022/05/06 02:18:35;;;;;;;;;;;13.20;99.90;;;;;;5087331;28;19991;-89
2022/05/06 02:21:01;;;;;;;;;;;13.20;99.90;;;;;;5075601;28;20366;-88
2022/05/06 02:23:27;;;;;;;;;;;13.10;99.90;;;;;;5093744;28;20008;-89
2022/05/06 02:25:53;;;;;;;;;;;13.10;99.90;;;;;;5075445;28;20007;-88
2022/05/06 02:28:18;;;;;;;;;;;13.10;99.90;;;;;;5075948;28;19948;-89
2022/05/06 02:33:30;;;;;;;;;;;13.00;99.90;;;;;;5087748;28;19963;-88
2022/05/06 02:35:56;;;;;;;;;;;13.00;99.90;;;;;;5076746;28;19908;-89
2022/05/06 02:38:22;;;;;;;;;;;13.00;99.90;;;;;;5094922;28;20372;-89
2022/05/06 02:40:49;;;;;;;;;;;13.00;99.90;;;;;;5087084;28;19951;-88
2022/05/06 02:43:14;;;;;;;;;;;13.00;99.90;;;;;;5093366;28;19908;-88
2022/05/06 02:45:41;;;;;;;;;;;12.90;99.90;;;;;;5093491;28;19915;-88
2022/05/06 02:48:06;;;;;;;;;;;12.90;99.90;;;;;;5075596;28;19908;-89
2022/05/06 02:50:32;;;;;;;;;;;12.80;99.90;;;;;;5093170;28;19908;-88
2022/05/06 02:52:58;;;;;;;;;;;12.70;99.90;;;;;;5093548;28;19909;-88
2022/05/06 02:55:23;;;;;;;;;;;12.70;99.90;;;;;;5093371;28;19916;-89
2022/05/06 02:57:49;;;;;;;;;;;12.70;99.90;;;;;;5075629;28;19962;-92
2022/05/06 03:00:15;;;;;;;;;;;12.80;99.90;;;;;;5093114;28;19915;-88
2022/05/06 03:02:41;;;;;;;;;;;12.70;99.90;;;;;;5075088;28;19951;-88
2022/05/06 03:05:07;;;;;;;;;;;12.70;99.90;;;;;;5091688;28;19908;-88
2022/05/06 03:07:32;;;;;;;;;;;12.70;99.90;;;;;;5093323;28;19908;-88
2022/05/06 03:09:58;;;;;;;;;;;12.60;99.90;;;;;;5093320;28;19908;-89
2022/05/06 03:12:26;;;;;;;;;;;12.60;99.90;;;;;;5093164;28;19912;-89
2022/05/06 03:14:52;;;;;;;;;;;12.60;99.90;;;;;;5093231;28;19927;-89
2022/05/06 03:17:18;;;;;;;;;;;12.60;99.90;;;;;;5093265;28;19912;-89
2022/05/06 03:19:43;;;;;;;;;;;12.60;99.90;;;;;;5092695;28;19912;-88
2022/05/06 03:22:09;;;;;;;;;;;12.60;99.90;;;;;;5092917;28;19915;-89
2022/05/06 03:24:35;;;;;;;;;;;12.50;99.90;;;;;;5092670;28;19931;-87
2022/05/06 03:27:00;;;;;;;;;;;12.50;99.90;;;;;;5092534;28;19969;-89
2022/05/06 03:29:26;;;;;;;;;;;12.40;99.90;;;;;;5092752;28;19908;-88
2022/05/06 03:31:54;;;;;;;;;;;12.40;99.90;;;;;;5092650;28;19908;-87
2022/05/06 03:34:20;;;;;;;;;;;12.40;99.90;;;;;;5074646;28;19961;-92
2022/05/06 03:36:46;;;;;;;;;;;12.40;99.90;;;;;;5074885;28;19984;-90
2022/05/06 03:39:12;;;;;;;;;;;12.40;99.90;;;;;;5074660;28;19908;-89
2022/05/06 03:41:38;;;;;;;;;;;12.40;99.90;;;;;;5092903;28;20372;-89
2022/05/06 03:44:03;;;;;;;;;;;12.40;99.90;;;;;;5092280;28;19912;-89
2022/05/06 03:46:29;;;;;;;;;;;12.40;99.90;;;;;;5074284;28;19943;-89
2022/05/06 03:48:55;;;;;;;;;;;12.40;99.90;;;;;;5092310;28;19908;-89
2022/05/06 03:51:20;;;;;;;;;;;12.40;99.90;;;;;;5092143;28;20399;-89
2022/05/06 03:53:53;;;;;;;;;;;12.50;99.90;;;;;;5092385;28;20418;-88
2022/05/06 03:56:19;;;;;;;;;;;12.40;99.90;;;;;;5092526;28;19965;-88
2022/05/06 03:58:45;;;;;;;;;;;12.40;99.90;;;;;;5092287;28;20003;-88
2022/05/06 04:01:11;;;;;;;;;;;12.40;99.90;;;;;;5092077;28;19941;-88
2022/05/06 04:03:38;;;;;;;;;;;12.40;99.90;;;;;;5092018;28;19912;-89
2022/05/06 04:06:04;;;;;;;;;;;12.40;99.90;;;;;;5073379;28;20003;-88
2022/05/06 04:08:30;;;;;;;;;;;12.30;99.90;;;;;;5091889;28;19995;-88
2022/05/06 04:10:56;;;;;;;;;;;12.30;99.90;;;;;;5092231;28;19931;-88
2022/05/06 04:13:21;;;;;;;;;;;12.30;99.90;;;;;;5092053;28;20026;-88
2022/05/06 04:15:47;;;;;;;;;;;12.40;99.90;;;;;;5091991;28;20412;-89
2022/05/06 04:18:13;;;;;;;;;;;12.40;99.90;;;;;;5092165;28;19966;-89
2022/05/06 04:23:32;;;;;;;;;;;12.40;99.90;;;;;;5091860;28;19915;-84
2022/05/06 04:26:01;;;;;;;;;;;12.40;99.90;;;;;;5092498;28;19912;-84
2022/05/06 04:28:27;;;;;;;;;;;12.40;99.90;;;;;;5084464;28;19909;-84
2022/05/06 04:30:53;;;;;;;;;;;12.40;99.90;;;;;;5091230;28;19973;-84
2022/05/06 04:33:22;;;;;;;;;;;12.40;99.90;;;;;;5090316;28;19912;-84
2022/05/06 04:35:48;;;;;;;;;;;12.40;99.90;;;;;;5090281;28;19959;-84
2022/05/06 04:38:14;;;;;;;;;;;12.20;99.90;;;;;;5090627;28;19982;-84
2022/05/06 04:40:40;;;;;;;;;;;12.30;99.90;;;;;;5090599;28;20326;-84
2022/05/06 04:43:06;;;;;;;;;;;12.30;99.90;;;;;;5090479;28;20316;-84
2022/05/06 04:45:38;;;;;;;;;;;12.30;99.90;;;;;;5090496;28;19908;-84
2022/05/06 04:48:05;;;;;;;;;;;12.30;99.90;;;;;;5090618;28;19916;-84
2022/05/06 04:50:31;;;;;;;;;;;12.30;99.90;;;;;;5089957;28;19940;-84
2022/05/06 04:52:57;;;;;;;;;;;12.30;99.90;;;;;;5090571;28;20489;-84
2022/05/06 04:55:23;;;;;;;;;;;12.30;99.90;;;;;;5091047;28;19927;-84
2022/05/06 04:57:49;;;;;;;;;;;12.30;99.90;;;;;;5090860;28;19924;-84
2022/05/06 05:00:14;;;;;;;;;;;12.30;99.90;;;;;;5090836;28;19969;-84
2022/05/06 05:02:40;;;;;;;;;;;12.20;99.90;;;;;;5090478;28;19920;-84
2022/05/06 05:05:06;;;;;;;;;;;12.30;99.90;;;;;;5090211;28;19945;-84
2022/05/06 05:07:31;;;;;;;;;;;12.30;99.90;;;;;;5090660;28;20320;-84
2022/05/06 05:09:57;;;;;;;;;;;12.20;99.90;;;;;;5090554;28;19908;-84
2022/05/06 05:12:24;;;;;;;;;;;12.30;99.90;;;;;;5090983;28;19942;-84
2022/05/06 05:14:50;;;;;;;;;;;12.20;99.90;;;;;;5090446;28;20380;-84
2022/05/06 05:17:15;;;;;;;;;;;12.20;99.90;;;;;;5090578;28;19919;-84
2022/05/06 05:19:42;;;;;;;;;;;12.20;99.90;;;;;;5071803;28;20422;-83
2022/05/06 05:22:07;;;;;;;;;;;12.20;99.90;;;;;;5090141;28;19909;-83
2022/05/06 05:24:33;;;;;;;;;;;12.20;99.90;;;;;;5090508;28;19916;-83
2022/05/06 05:26:59;;;;;;;;;;;12.20;99.90;;;;;;5089698;28;19908;-83
2022/05/06 05:29:24;;;;;;;;;;;12.30;99.90;;;;;;5090503;28;19916;-84
2022/05/06 05:31:51;;;;;;;;;;;12.30;99.90;;;;;;5090684;28;20257;-83
2022/05/06 05:34:16;;;;;;;;;;;12.20;99.90;;;;;;5089854;28;19920;-84
2022/05/06 05:36:42;;;;;;;;;;;12.20;99.90;;;;;;5090231;28;20006;-84
2022/05/06 05:39:08;;;;;;;;;;;12.20;99.90;;;;;;5071983;28;19908;-84
2022/05/06 05:41:33;;;;;;;;;;;12.30;99.90;;;;;;5072092;28;20355;-84
2022/05/06 05:49:28;;;;;;;;;;;12.30;99.90;;;;;;5089479;28;21217;-82
2022/05/06 05:51:53;;;;;;;;;;;12.30;99.90;;;;;;5088214;28;19912;-81
2022/05/06 05:54:19;;;;;;;;;;;12.40;99.90;;;;;;5086456;28;20261;-81
2022/05/06 05:56:45;;;;;;;;;;;12.40;99.90;;;;;;5068286;28;19909;-81
2022/05/06 05:59:11;;;;;;;;;;;12.40;99.90;;;;;;5084952;28;19912;-81
2022/05/06 06:01:36;;;;;;;;;;;12.40;99.90;;;;;;5089932;28;19916;-79
2022/05/06 06:04:03;;;;;;;;;;;12.40;99.90;;;;;;5089623;28;19961;-80
2022/05/06 06:06:28;;;;;;;;;;;12.40;99.90;;;;;;5090621;28;19949;-80
2022/05/06 06:08:54;;;;;;;;;;;12.50;99.90;;;;;;5093282;28;19954;-80
2022/05/06 06:11:19;;;;;;;;;;;12.60;99.90;;;;;;5096758;28;19908;-80
2022/05/06 06:13:45;;;;;;;;;;;12.60;99.90;;;;;;5075022;28;20418;-80
2022/05/06 06:16:10;;;;;;;;;;;12.60;99.90;;;;;;5089054;28;20399;-79
2022/05/06 06:18:36;;;;;;;;;;;12.70;99.90;;;;;;5089615;28;19961;-79
2022/05/06 06:21:01;;;;;;;;;;;12.80;99.90;;;;;;5070911;28;19908;-79
2022/05/06 06:23:29;;;;;;;;;;;12.80;99.90;;;;;;5083020;28;19908;-78
2022/05/06 06:25:55;;;;;;;;;;;12.90;99.90;;;;;;5089685;28;19982;-78
2022/05/06 06:28:21;;;;;;;;;;;13.00;99.90;;;;;;5089485;28;19908;-78
2022/05/06 06:30:46;;;;;;;;;;;13.00;99.90;;;;;;5089407;28;19908;-79
2022/05/06 06:33:12;;;;;;;;;;;13.00;99.90;;;;;;5089330;28;19908;-78
2022/05/06 06:35:37;;;;;;;;;;;13.20;99.90;;;;;;5089144;28;19969;-78
2022/05/06 06:38:03;;;;;;;;;;;13.30;99.90;;;;;;5088990;28;19959;-78
2022/05/06 06:40:28;;;;;;;;;;;13.40;99.90;;;;;;5092694;28;20540;-78
2022/05/06 06:42:59;;;;;;;;;;;13.50;99.90;;;;;;5093319;28;20253;-78
2022/05/06 06:45:24;;;;;;;;;;;13.50;99.90;;;;;;5092801;28;20332;-78
2022/05/06 06:47:50;;;;;;;;;;;13.50;99.90;;;;;;5092157;28;19987;-78
2022/05/06 06:50:16;;;;;;;;;;;13.40;99.90;;;;;;5092475;28;19908;-78
2022/05/06 06:52:41;;;;;;;;;;;13.50;99.90;;;;;;5092628;28;20300;-78
2022/05/06 06:55:07;;;;;;;;;;;13.50;99.90;;;;;;5092947;28;19931;-78
2022/05/06 06:57:33;;;;;;;;;;;13.60;99.90;;;;;;5091895;28;19942;-78
2022/05/06 06:59:58;;;;;;;;;;;13.70;99.90;;;;;;5092645;28;19912;-77
2022/05/06 07:02:24;;;;;;;;;;;13.70;99.90;;;;;;5074141;28;20330;-77
2022/05/06 07:04:51;;;;;;;;;;;13.80;99.90;;;;;;5096669;28;20169;-77
2022/05/06 07:12:45;;;;;;;;;;;13.90;99.90;;;;;;5085733;28;20394;-78
2022/05/06 07:15:10;;;;;;;;;;;14.00;99.90;;;;;;5091576;28;19917;-78
2022/05/06 07:17:36;;;;;;;;;;;14.10;99.90;;;;;;5091788;28;19908;-78
2022/05/06 07:20:01;;;;;;;;;;;14.20;99.90;;;;;;5093844;28;19911;-78
2022/05/06 07:22:27;;;;;;;;;;;14.10;99.90;;;;;;5091737;28;19916;-79
2022/05/06 07:24:52;;;;;;;;;;;14.20;99.90;;;;;;5092362;28;19912;-79
2022/05/06 07:27:18;;;;;;;;;;;14.30;99.90;;;;;;5091282;28;20296;-80
2022/05/06 07:29:44;;;;;;;;;;;14.40;99.90;;;;;;5092207;28;19908;-79
2022/05/06 07:32:10;;;;;;;;;;;14.50;99.90;;;;;;5091746;28;19919;-79
2022/05/06 07:34:35;;;;;;;;;;;14.50;99.90;;;;;;5093339;28;19920;-78
2022/05/06 07:37:01;;;;;;;;;;;14.60;99.90;;;;;;5091566;28;20012;-79
2022/05/06 07:39:27;;;;;;;;;;;14.80;99.90;;;;;;5093680;28;19908;-79
2022/05/06 07:41:52;;;;;;;;;;;14.90;99.90;;;;;;5092032;28;20296;-79
2022/05/06 07:44:18;;;;;;;;;;;15.00;99.90;;;;;;5091648;28;20356;-79
2022/05/06 07:46:44;;;;;;;;;;;15.00;99.90;;;;;;5090999;28;19908;-79
2022/05/06 07:49:09;;;;;;;;;;;15.10;99.90;;;;;;5091085;28;19916;-79
2022/05/06 07:51:35;;;;;;;;;;;15.20;99.90;;;;;;5091577;28;19908;-80
2022/05/06 07:54:00;;;;;;;;;;;15.40;99.90;;;;;;5091193;28;19920;-79
2022/05/06 07:56:26;;;;;;;;;;;15.50;99.90;;;;;;5091165;28;19908;-79
2022/05/06 07:58:52;;;;;;;;;;;15.50;99.90;;;;;;5091012;28;19919;-80
2022/05/06 08:04:32;;;;;;;;;;;15.70;99.90;;;;;;5095171;28;19908;-79
2022/05/06 08:06:50;;;;;;;;;;;15.90;99.90;;;;;;5090855;28;19915;-79
2022/05/06 08:09:15;;;;;;;;;;;15.90;99.90;;;;;;5091140;28;19908;-79
2022/05/06 08:11:41;;;;;;;;;;;16.00;99.90;;;;;;5091069;28;20083;-79
2022/05/06 08:14:07;;;;;;;;;;;16.10;99.90;;;;;;5090729;28;19912;-79
2022/05/06 08:16:32;;;;;;;;;;;16.10;99.90;;;;;;5089657;28;20010;-79
2022/05/06 08:18:58;;;;;;;;;;;16.20;99.90;;;;;;5090455;28;19908;-78
2022/05/06 08:21:23;;;;;;;;;;;16.30;99.90;;;;;;5072422;28;19915;-78
2022/05/06 08:23:49;;;;;;;;;;;16.40;99.90;;;;;;5090591;28;20392;-78
2022/05/06 08:26:15;;;;;;;;;;;16.40;99.90;;;;;;5071849;28;19914;-78
2022/05/06 08:28:40;;;;;;;;;;;16.50;99.90;;;;;;5090616;28;20007;-77
2022/05/06 08:31:06;;;;;;;;;;;16.60;99.90;;;;;;5072548;28;20183;-77
2022/05/06 08:33:31;;;;;;;;;;;16.60;99.90;;;;;;5090614;28;19965;-78
2022/05/06 08:35:57;;;;;;;;;;;16.70;99.90;;;;;;5071706;28;19916;-78
2022/05/06 08:38:22;;;;;;;;;;;16.70;99.90;;;;;;5090979;28;20342;-77
2022/05/06 08:40:49;;;;;;;;;;;16.80;99.90;;;;;;5090474;28;20468;-77
2022/05/06 08:43:15;;;;;;;;;;;16.90;99.90;;;;;;5090289;28;19915;-77
2022/05/06 08:51:10;;;;;;;;;;;17.20;99.90;;;;;;5089911;28;20003;-77
2022/05/06 08:53:37;;;;;;;;;;;17.20;99.90;;;;;;5093025;28;19936;-78
2022/05/06 08:56:02;;;;;;;;;;;17.40;99.90;;;;;;5088973;28;19923;-78
2022/05/06 08:58:31;;;;;;;;;;;17.40;99.90;;;;;;5090005;28;19908;-78
2022/05/06 09:01:01;;;;;;;;;;;17.40;99.90;;;;;;5090193;28;19918;-77
2022/05/06 09:03:27;;;;;;;;;;;17.50;99.90;;;;;;5089495;28;19963;-78
2022/05/06 09:05:53;;;;;;;;;;;17.60;99.90;;;;;;5089516;28;19964;-78
2022/05/06 09:08:20;;;;;;;;;;;17.70;99.90;;;;;;5089829;28;19908;-78
2022/05/06 09:10:59;;;;;;;;;;;17.70;99.90;;;;;;5090082;28;19964;-77
2022/05/06 09:13:25;;;;;;;;;;;17.60;99.90;;;;;;5092657;28;19908;-78
2022/05/06 09:18:35;;;;;;;;;;;17.60;99.90;;;;;;5090555;28;20105;-77
2022/05/06 09:21:10;;;;;;;;;;;17.60;99.90;;;;;;5089636;28;20475;-78
2022/05/06 09:23:36;;;;;;;;;;;17.70;99.90;;;;;;5089949;28;20513;-78
2022/05/06 09:26:01;;;;;;;;;;;17.80;99.90;;;;;;5089542;28;19915;-78
2022/05/06 09:28:27;;;;;;;;;;;17.80;99.90;;;;;;5090028;28;19908;-78
2022/05/06 09:31:01;;;;;;;;;;;17.90;99.90;;;;;;5090006;28;19908;-78
2022/05/06 09:33:28;;;;;;;;;;;18.00;99.90;;;;;;5087540;28;19912;-78
2022/05/06 09:35:55;;;;;;;;;;;18.00;99.90;;;;;;5088822;28;19981;-78
2022/05/06 09:38:21;;;;;;;;;;;18.10;99.90;;;;;;5089500;28;19916;-78
2022/05/06 09:40:47;;;;;;;;;;;18.20;99.90;;;;;;5089968;28;19912;-78
2022/05/06 09:43:19;;;;;;;;;;;18.20;99.90;;;;;;5089923;28;19908;-78
2022/05/06 09:45:45;;;;;;;;;;;18.10;99.90;;;;;;5089251;28;20095;-78
2022/05/06 09:48:11;;;;;;;;;;;18.20;99.90;;;;;;5091370;28;20075;-78
2022/05/06 09:50:46;;;;;;;;;;;18.30;99.90;;;;;;5089759;28;20065;-85
2022/05/06 09:53:13;;;;;;;;;;;18.40;99.90;;;;;;5089859;28;20384;-79
2022/05/06 09:55:44;;;;;;;;;;;18.50;99.90;;;;;;5090775;28;20296;-79
2022/05/06 09:58:10;;;;;;;;;;;18.50;99.90;;;;;;5085219;28;19916;-76
2022/05/06 10:00:38;;;;;;;;;;;18.60;99.90;;;;;;5089576;28;19909;-77
2022/05/06 10:03:04;;;;;;;;;;;18.80;99.90;;;;;;5089447;28;19925;-77
2022/05/06 10:05:32;;;;;;;;;;;18.90;99.90;;;;;;5089461;28;19999;-77
2022/05/06 10:08:08;;;;;;;;;;;19.00;99.90;;;;;;5089066;28;19908;-77
2022/05/06 10:10:38;;;;;;;;;;;19.10;99.90;;;;;;5089279;28;19916;-77
2022/05/06 10:13:14;;;;;;;;;;;19.10;99.90;;;;;;5089493;28;19912;-77
2022/05/06 10:15:40;;;;;;;;;;;19.10;99.90;;;;;;5095148;28;19923;-77
2022/05/06 10:18:07;;;;;;;;;;;19.00;99.90;;;;;;5093543;28;19912;-76
2022/05/06 10:20:36;;;;;;;;;;;19.20;99.90;;;;;;5092937;28;19908;-76
2022/05/06 10:23:07;;;;;;;;;;;19.40;99.90;;;;;;5093286;28;19908;-77
2022/05/06 10:25:42;;;;;;;;;;;19.50;99.90;;;;;;5092581;28;20388;-76
2022/05/06 10:34:12;;;;;;;;;;;19.90;99.90;;;;;;5060561;28;20155;-77
2022/05/06 10:36:42;;;;;;;;;;;20.10;99.90;;;;;;5092542;28;19912;-77
2022/05/06 10:39:20;;;;;;;;;;;20.00;99.40;;;;;;5093127;28;19908;-77
2022/05/06 10:41:58;;;;;;;;;;;19.90;99.40;;;;;;5092889;28;20042;-77
2022/05/06 10:44:44;;;;;;;;;;;20.00;99.20;;;;;;5092716;28;19960;-77
2022/05/06 10:47:16;;;;;;;;;;;20.10;99.30;;;;;;5092399;28;19915;-77
2022/05/06 10:49:43;;;;;;;;;;;20.20;98.80;;;;;;5092502;28;19941;-76
2022/05/06 10:52:19;;;;;;;;;;;20.30;98.70;;;;;;5092591;28;20378;-77
2022/05/06 10:54:49;;;;;;;;;;;20.40;98.70;;;;;;5092443;28;19916;-77
2022/05/06 10:57:18;;;;;;;;;;;20.40;98.60;;;;;;5092280;28;20430;-77
2022/05/06 10:59:50;;;;;;;;;;;20.50;99.10;;;;;;5092429;28;19919;-77
2022/05/06 11:02:16;;;;;;;;;;;20.50;98.80;;;;;;5092062;28;20311;-77
2022/05/06 11:04:52;;;;;;;;;;;20.70;97.80;;;;;;5091830;28;19915;-77
2022/05/06 11:07:17;;;;;;;;;;;20.80;96.20;;;;;;5092153;28;20489;-76
2022/05/06 11:09:43;;;;;;;;;;;20.80;95.70;;;;;;5093226;28;19989;-76
2022/05/06 11:12:09;;;;;;;;;;;20.70;97.10;;;;;;5092242;28;19908;-76
2022/05/06 11:14:35;;;;;;;;;;;20.80;97.50;;;;;;5096425;28;19908;-77
2022/05/06 11:17:16;;;;;;;;;;;20.80;96.60;;;;;;5102479;28;19904;-76
2022/05/06 11:19:42;;;;;;;;;;;20.90;97.20;;;;;;5100105;28;19912;-76
2022/05/06 11:22:08;;;;;;;;;;;21.10;97.00;;;;;;5102752;28;19979;-76
2022/05/06 11:24:34;;;;;;;;;;;21.20;96.20;;;;;;5092102;28;19919;-76
2022/05/06 11:27:18;;;;;;;;;;;21.30;96.40;;;;;;5090859;28;19908;-76
2022/05/06 11:29:47;;;;;;;;;;;21.40;95.40;;;;;;5092869;28;19908;-76
2022/05/06 11:32:13;;;;;;;;;;;21.40;95.70;;;;;;5092090;28;20011;-76
2022/05/06 11:34:41;;;;;;;;;;;21.50;96.40;;;;;;5093790;28;19919;-75
2022/05/06 11:37:07;;;;;;;;;;;21.70;96.00;;;;;;5091252;28;20053;-75
2022/05/06 11:39:32;;;;;;;;;;;21.80;95.70;;;;;;5091718;28;19998;-76
2022/05/06 11:42:17;;;;;;;;;;;21.90;95.30;;;;;;5095747;28;19908;-76
2022/05/06 11:47:29;;;;;;;;;;;22.00;95.70;;;;;;5090021;28;19915;-76
2022/05/06 11:49:55;;;;;;;;;;;22.20;95.60;;;;;;5091725;28;19912;-78
2022/05/06 11:52:21;;;;;;;;;;;22.30;95.80;;;;;;5091456;28;19909;-78
2022/05/06 11:54:47;;;;;;;;;;;22.40;95.50;;;;;;5091828;28;19916;-78
2022/05/06 11:57:13;;;;;;;;;;;22.50;95.40;;;;;;5092340;28;19919;-78
2022/05/06 11:59:38;;;;;;;;;;;22.40;95.00;;;;;;5093111;28;20365;-78
2022/05/06 12:02:09;;;;;;;;;;;22.30;95.20;;;;;;5096677;28;19961;-78
2022/05/06 12:04:35;;;;;;;;;;;22.40;95.40;;;;;;5099084;28;19904;-78
2022/05/06 12:07:00;;;;;;;;;;;22.60;94.50;;;;;;5098153;28;19910;-78
2022/05/06 12:09:28;;;;;;;;;;;22.70;94.40;;;;;;5093747;28;19908;-78
2022/05/06 12:12:07;;;;;;;;;;;22.90;94.30;;;;;;5092955;28;19908;-78
2022/05/06 12:14:33;;;;;;;;;;;23.00;94.10;;;;;;5097335;28;19988;-78
2022/05/06 12:16:59;;;;;;;;;;;23.20;93.50;;;;;;5091039;28;20364;-78
2022/05/06 12:19:39;;;;;;;;;;;23.30;93.50;;;;;;5093096;28;19995;-78
2022/05/06 12:22:05;;;;;;;;;;;23.50;93.50;;;;;;5092218;28;20291;-78
2022/05/06 12:24:40;;;;;;;;;;;23.80;93.30;;;;;;5091528;28;20073;-77
2022/05/06 12:27:08;;;;;;;;;;;23.80;92.50;;;;;;5091033;28;19904;-78
2022/05/06 12:29:40;;;;;;;;;;;23.80;92.30;;;;;;5091064;28;19919;-78
2022/05/06 12:32:06;;;;;;;;;;;23.90;92.40;;;;;;5091785;28;19915;-79
2022/05/06 12:34:32;;;;;;;;;;;24.10;92.60;;;;;;5091820;28;19923;-78
2022/05/06 12:37:14;;;;;;;;;;;24.10;92.20;;;;;;5091109;28;19908;-79
2022/05/06 12:39:45;;;;;;;;;;;24.10;91.70;;;;;;5093140;28;20434;-78
2022/05/06 12:42:20;;;;;;;;;;;24.10;92.30;;;;;;5092988;28;20469;-79
2022/05/06 12:44:46;;;;;;;;;;;24.40;92.30;;;;;;5091400;28;19908;-78
2022/05/06 12:47:13;;;;;;;;;;;24.50;91.30;;;;;;5090058;28;19984;-79
2022/05/06 12:49:42;;;;;;;;;;;24.70;91.70;;;;;;5090292;28;20445;-79
2022/05/06 12:52:10;;;;;;;;;;;24.80;91.70;;;;;;5090663;28;20021;-78
2022/05/06 12:54:36;;;;;;;;;;;24.90;91.50;;;;;;5091244;28;20003;-78
2022/05/06 12:57:03;;;;;;;;;;;25.30;90.90;;;;;;5089776;28;20003;-78
2022/05/06 12:59:28;;;;;;;;;;;25.20;90.80;;;;;;5089985;28;20274;-78
2022/05/06 13:01:54;;;;;;;;;;;24.90;90.50;;;;;;5083889;28;19926;-78
2022/05/06 13:04:20;;;;;;;;;;;24.80;90.70;;;;;;5090290;28;19908;-79
2022/05/06 13:06:45;;;;;;;;;;;24.90;91.10;;;;;;5089814;28;19915;-79
2022/05/06 13:09:13;;;;;;;;;;;25.20;90.90;;;;;;5094379;28;20729;-78
2022/05/06 13:11:39;;;;;;;;;;;25.70;90.80;;;;;;5090614;28;19912;-79
2022/05/06 13:14:06;;;;;;;;;;;26.20;90.50;;;;;;5089937;28;20434;-79
2022/05/06 13:16:32;;;;;;;;;;;26.60;88.90;;;;;;5090286;28;19965;-78
2022/05/06 13:18:58;;;;;;;;;;;26.30;89.40;;;;;;5089692;28;19904;-78
2022/05/06 13:21:23;;;;;;;;;;;25.80;89.30;;;;;;5071642;28;19919;-78
2022/05/06 13:23:49;;;;;;;;;;;25.80;88.90;;;;;;5090118;28;19908;-78
2022/05/06 13:26:14;;;;;;;;;;;25.90;87.70;;;;;;5089636;28;19908;-79
2022/05/06 13:28:40;;;;;;;;;;;26.20;87.70;;;;;;5090207;28;19908;-78
2022/05/06 13:31:05;;;;;;;;;;;26.50;87.90;;;;;;5090569;28;19916;-78
2022/05/06 13:33:31;;;;;;;;;;;26.90;87.60;;;;;;5091606;28;19908;-78
2022/05/06 13:36:00;;;;;;;;;;;26.80;87.20;;;;;;5091491;28;20336;-79
2022/05/06 13:38:28;;;;;;;;;;;26.80;85.60;;;;;;5091005;28;19912;-79
2022/05/06 13:40:53;;;;;;;;;;;27.30;86.30;;;;;;5089646;28;19913;-79
2022/05/06 13:43:19;;;;;;;;;;;27.80;85.80;;;;;;5090205;28;19942;-79
2022/05/06 13:45:44;;;;;;;;;;;27.90;87.80;;;;;;5072098;28;19996;-79
2022/05/06 13:48:11;;;;;;;;;;;26.60;92.00;;;;;;5092697;28;20208;-79
2022/05/06 13:50:37;;;;;;;;;;;26.50;91.80;;;;;;5097947;28;20411;-79
2022/05/06 13:53:02;;;;;;;;;;;26.70;91.40;;;;;;5094039;28;19975;-80
2022/05/06 13:59:03;;;;;;;;;;;27.00;91.70;;;;;;5094935;28;19920;-79
2022/05/06 14:00:58;;;;;;;;;;;28.40;90.30;;;;;;5090873;28;19975;-79
2022/05/06 14:03:23;;;;;;;;;;;28.90;90.00;;;;;;5093234;28;19964;-83
2022/05/06 14:05:51;;;;;;;;;;;28.40;90.00;;;;;;5094979;28;19955;-84
2022/05/06 14:08:17;;;;;;;;;;;29.40;89.70;;;;;;5093008;28;19957;-85
2022/05/06 14:10:43;;;;;;;;;;;30.80;86.40;;;;;;5093661;28;19912;-84
2022/05/06 14:13:08;;;;;;;;;;;31.10;85.30;;;;;;5093806;28;19908;-84
2022/05/06 14:15:36;;;;;;;;;;;31.90;86.30;;;;;;5093791;28;20006;-84
2022/05/06 14:18:02;;;;;;;;;;;32.00;84.30;;;;;;5093841;28;19908;-84
2022/05/06 14:20:28;;;;;;;;;;;33.10;83.10;;;;;;5093835;28;19962;-84
2022/05/06 14:22:53;;;;;;;;;;;32.90;80.50;;;;;;5093470;28;19973;-84
2022/05/06 14:25:19;;;;;;;;;;;32.90;79.70;;;;;;5093418;28;19911;-84
2022/05/06 14:27:46;;;;;;;;;;;33.70;77.70;;;;;;5093402;28;19908;-84
2022/05/06 14:30:12;;;;;;;;;;;34.60;78.30;;;;;;5093289;28;20397;-83
2022/05/06 14:32:38;;;;;;;;;;;33.90;78.20;;;;;;5093513;28;19935;-84
2022/05/06 14:35:21;;;;;;;;;;;33.90;78.00;;;;;;5092847;28;20265;-83
2022/05/06 14:37:49;;;;;;;;;;;33.90;76.60;;;;;;5093392;28;19908;-83
2022/05/06 14:40:16;;;;;;;;;;;33.10;78.60;;;;;;5075100;28;19908;-83
2022/05/06 14:42:43;;;;;;;;;;;33.30;78.10;;;;;;5093297;28;19974;-83
2022/05/06 14:45:08;;;;;;;;;;;32.80;76.20;;;;;;5093109;28;19908;-83
2022/05/06 14:47:34;;;;;;;;;;;33.30;79.20;;;;;;5092938;28;19919;-83
2022/05/06 14:50:00;;;;;;;;;;;33.80;77.50;;;;;;5093076;28;20383;-83
2022/05/06 14:52:25;;;;;;;;;;;34.20;75.10;;;;;;5092856;28;19908;-83
2022/05/06 14:54:51;;;;;;;;;;;34.80;75.00;;;;;;5093043;28;19919;-83
2022/05/06 14:57:17;;;;;;;;;;;34.20;77.60;;;;;;5092921;28;19908;-84